Time;durP1;ratioP1;P1;durP2;ratioP2;P2;SDS_P1;SDS_P2;PMS_P1;PMS_P2;Temp;Humidity;BMP_temperature;BMP_pressure;BME280_temperature;BME280_humidity;BME280_pressure;Samples;Min_cycle;Max_cycle;Signal;HPM_P1;HPM_P2
2022/12/27 00:01:41;;;;;;;9.10;8.40;;;;;;;21.62;34.63;95775.88;6211924;28;106635;-70
2022/12/27 00:04:45;;;;;;;8.63;7.83;;;;;;;21.61;34.72;95782.28;6211015;28;103363;-72
2022/12/27 00:07:48;;;;;;;9.30;8.57;;;;;;;21.53;34.65;95778.41;6200900;28;105909;-71
2022/12/27 00:10:52;;;;;;;8.60;7.90;;;;;;;21.59;34.37;95781.78;6211550;28;103370;-71
2022/12/27 00:13:55;;;;;;;8.23;7.63;;;;;;;21.58;34.24;95783.66;6210149;28;102928;-71
2022/12/27 00:16:58;;;;;;;9.03;8.23;;;;;;;21.40;34.42;95753.25;6205929;28;102862;-71
2022/12/27 00:20:01;;;;;;;8.13;7.43;;;;;;;21.48;34.76;95765.91;6192369;28;103584;-71
2022/12/27 00:23:13;;;;;;;8.80;8.10;;;;;;;21.41;34.37;95754.81;6210561;28;103723;-71
2022/12/27 00:26:19;;;;;;;8.80;8.00;;;;;;;21.47;34.71;95761.66;6211122;28;102764;-71
2022/12/27 00:29:22;;;;;;;7.90;7.30;;;;;;;21.56;34.22;95777.03;6211234;28;103173;-71
2022/12/27 00:32:25;;;;;;;8.30;7.70;;;;;;;21.54;34.66;95774.66;6201146;28;102912;-71
2022/12/27 00:35:28;;;;;;;8.73;7.93;;;;;;;21.55;34.62;95776.25;6211784;28;104589;-71
2022/12/27 00:38:32;;;;;;;8.20;7.60;;;;;;;21.50;34.38;95773.63;6211359;28;103176;-71
2022/12/27 00:41:36;;;;;;;8.40;7.60;;;;;;;21.55;34.01;95780.78;6206096;28;103728;-70
2022/12/27 00:44:39;;;;;;;8.97;8.17;;;;;;;21.55;34.62;95794.09;6199384;28;104519;-71
2022/12/27 00:47:42;;;;;;;8.40;7.70;;;;;;;21.54;34.32;95795.97;6210748;28;103156;-71
2022/12/27 00:50:46;;;;;;;8.40;7.70;;;;;;;21.51;34.31;95796.53;6210119;28;103351;-71
2022/12/27 00:53:50;;;;;;;7.50;6.90;;;;;;;21.55;34.07;95808.19;6200331;28;105725;-71
2022/12/27 00:56:54;;;;;;;8.33;7.57;;;;;;;21.56;34.35;95804.47;6210605;28;104988;-71
2022/12/27 00:59:57;;;;;;;8.57;7.77;;;;;;;21.55;34.06;95812.75;6210466;28;104238;-71
2022/12/27 01:03:04;;;;;;;7.60;6.93;;;;;;;21.49;34.43;95815.44;6210271;28;103265;-71
2022/12/27 01:06:08;;;;;;;7.70;7.00;;;;;;;21.49;34.16;95799.44;6198925;28;102828;-71
2022/12/27 01:09:11;;;;;;;8.60;7.80;;;;;;;21.51;33.86;95813.31;6210500;28;105407;-71
2022/12/27 01:12:16;;;;;;;8.10;7.30;;;;;;;21.48;34.06;95800.53;6209781;28;103341;-71
2022/12/27 01:15:19;;;;;;;8.50;7.80;;;;;;;21.49;33.61;95804.00;6208548;28;103194;-70
2022/12/27 01:18:22;;;;;;;8.20;7.50;;;;;;;21.51;34.28;95813.31;6202796;28;104925;-71
2022/12/27 01:21:29;;;;;;;8.67;7.90;;;;;;;21.48;34.22;95808.53;6210349;28;103029;-71
2022/12/27 01:24:33;;;;;;;8.40;7.70;;;;;;;21.42;33.74;95788.38;6209183;28;103466;-71
2022/12/27 01:27:38;;;;;;;8.63;7.93;;;;;;;21.48;33.78;95795.22;6201037;28;103893;-70
2022/12/27 01:30:41;;;;;;;8.83;8.03;;;;;;;21.49;33.84;95794.13;6208672;28;103202;-71
2022/12/27 01:33:44;;;;;;;8.53;7.73;;;;;;;21.49;33.63;95793.34;6209629;28;103410;-71
2022/12/27 01:36:47;;;;;;;8.73;7.93;;;;;;;21.49;33.74;95783.47;6209840;28;103279;-71
2022/12/27 01:39:50;;;;;;;9.20;8.40;;;;;;;21.49;34.04;95775.50;6198244;28;103127;-71
2022/12/27 01:42:55;;;;;;;9.50;8.60;;;;;;;21.49;34.05;95775.50;6209911;28;103088;-71
2022/12/27 01:45:58;;;;;;;9.63;8.73;;;;;;;21.49;33.90;95766.72;6210264;28;102819;-71
2022/12/27 01:49:02;;;;;;;9.03;8.33;;;;;;;21.49;33.92;95778.16;6208812;28;103049;-71
2022/12/27 01:52:09;;;;;;;8.43;7.73;;;;;;;21.48;33.78;95771.25;6199056;28;104522;-71
2022/12/27 01:55:23;;;;;;;8.93;8.17;;;;;;;21.48;33.54;95768.56;6202584;28;103361;-71
2022/12/27 01:58:34;;;;;;;9.10;8.20;;;;;;;21.45;33.75;95766.50;6211395;28;103015;-72
2022/12/27 02:01:43;;;;;;;8.53;7.83;;;;;;;21.49;33.78;95770.16;6207006;28;103374;-71
2022/12/27 02:04:46;;;;;;;8.53;7.80;;;;;;;21.49;33.79;95772.03;6213189;28;103111;-71
2022/12/27 02:08:08;;;;;;;8.17;7.47;;;;;;;21.46;33.93;95773.41;6213700;28;102953;-70
2022/12/27 02:11:13;;;;;;;8.17;7.50;;;;;;;21.48;33.88;95778.44;6212748;28;103413;-70
2022/12/27 02:14:21;;;;;;;9.07;8.30;;;;;;;21.47;33.60;95774.97;6203782;28;105767;-70
2022/12/27 02:17:32;;;;;;;8.70;8.00;;;;;;;21.45;33.59;95755.84;6212709;28;102758;-71
2022/12/27 02:20:59;;;;;;;8.17;7.37;;;;;;;21.48;33.54;95765.13;6213057;28;103123;-70
2022/12/27 02:24:30;;;;;;;8.60;7.90;;;;;;;21.47;33.54;95766.19;6203321;28;103954;-70
2022/12/27 02:27:48;;;;;;;8.50;7.80;;;;;;;21.48;33.42;95770.44;6208237;28;103114;-71
2022/12/27 02:30:59;;;;;;;7.53;6.93;;;;;;;21.47;33.66;95774.97;6212749;28;103070;-71
2022/12/27 02:34:10;;;;;;;7.47;6.77;;;;;;;21.45;33.33;95776.34;6213026;28;104091;-70
2022/12/27 02:37:13;;;;;;;7.47;6.87;;;;;;;21.20;33.50;95732.16;6203673;28;103006;-70
2022/12/27 02:54:16;;;;;;;7.43;6.80;;;;;;;21.42;33.59;95780.38;6211620;28;103140;-72
2022/12/27 02:57:25;;;;;;;6.97;6.37;;;;;;;21.45;33.24;95777.13;6212681;28;103075;-72
2022/12/27 03:04:28;;;;;;;6.70;6.10;;;;;;;21.44;33.82;95780.88;6156518;28;103650;-72
2022/12/27 03:07:38;;;;;;;6.50;6.00;;;;;;;21.44;33.53;95775.56;6160761;28;103056;-72
2022/12/27 03:17:45;;;;;;;6.60;6.10;;;;;;;21.44;33.34;95785.41;6211981;28;103087;-71
2022/12/27 03:27:36;;;;;;;7.20;6.60;;;;;;;21.43;33.62;95778.50;6212569;28;105840;-71
2022/12/27 03:44:24;;;;;;;5.70;5.20;;;;;;;21.43;33.50;95784.63;6197727;28;102834;-71
2022/12/27 03:47:34;;;;;;;6.83;6.33;;;;;;;21.40;32.99;95785.19;6210602;28;103433;-72
2022/12/27 03:50:43;;;;;;;7.20;6.60;;;;;;;21.42;33.12;95790.22;6211614;28;103231;-71
2022/12/27 03:53:51;;;;;;;6.37;5.70;;;;;;;21.32;33.08;95769.81;6210911;28;103084;-72
2022/12/27 03:56:57;;;;;;;6.37;5.77;;;;;;;21.42;33.20;95787.56;6194095;28;103939;-72
2022/12/27 04:00:00;;;;;;;6.70;6.20;;;;;;;21.32;33.31;95772.47;6212167;28;103629;-72
2022/12/27 04:03:04;;;;;;;6.30;5.80;;;;;;;21.34;33.40;95775.69;6188775;28;103046;-71
2022/12/27 04:06:07;;;;;;;6.13;5.63;;;;;;;21.41;33.07;95786.78;6210553;28;102904;-70
2022/12/27 04:35:57;;;;;;;6.70;6.10;;;;;;;21.39;32.97;95799.59;6211429;28;103649;-72
2022/12/27 04:39:08;;;;;;;6.87;6.30;;;;;;;21.40;33.02;95805.69;6209742;28;103618;-71
2022/12/27 04:55:36;;;;;;;7.00;6.40;;;;;;;21.38;32.53;95829.94;6209134;28;103289;-72
2022/12/27 05:02:01;;;;;;;7.47;6.73;;;;;;;21.38;32.62;95834.47;6210242;28;103433;-71
2022/12/27 05:02:03;;;;;;;7.43;6.73;;;;;;;21.39;32.83;95836.84;6211110;28;105020;-72
2022/12/27 05:05:08;;;;;;;7.50;6.80;;;;;;;21.38;32.74;95840.59;6199555;28;103039;-71
2022/12/27 05:14:56;;;;;;;7.83;7.23;;;;;;;21.36;32.52;95812.66;6203742;28;103398;-71
2022/12/27 05:17:59;;;;;;;8.30;7.60;;;;;;;21.26;32.46;95797.56;6203330;28;104261;-71
2022/12/27 05:21:03;;;;;;;9.80;8.80;;;;;;;21.38;32.67;95808.66;6209933;28;103083;-72
2022/12/27 05:27:29;;;;;;;8.97;8.17;;;;;;;21.26;32.40;95775.50;6198668;28;104665;-72
2022/12/27 05:30:34;;;;;;;8.30;7.60;;;;;;;21.37;32.74;95793.75;6208672;28;103490;-72
2022/12/27 05:33:37;;;;;;;9.43;8.63;;;;;;;21.34;32.33;95778.34;6207102;28;103629;-71
2022/12/27 05:36:40;;;;;;;9.03;8.13;;;;;;;21.38;32.77;95784.69;6204190;28;103221;-71
2022/12/27 05:39:43;;;;;;;8.80;8.00;;;;;;;21.35;32.82;95771.94;6198565;28;102828;-72
2022/12/27 05:42:46;;;;;;;8.70;8.00;;;;;;;21.38;32.36;95779.34;6208699;28;103027;-72
2022/12/27 05:45:50;;;;;;;9.23;8.40;;;;;;;21.38;32.29;95767.91;6209337;28;103409;-72
2022/12/27 05:48:53;;;;;;;8.63;7.83;;;;;;;21.39;32.36;95782.81;6203691;28;103026;-72
2022/12/27 05:51:56;;;;;;;9.67;8.83;;;;;;;21.38;32.44;95787.34;6202882;28;103213;-72
2022/12/27 05:55:00;;;;;;;8.90;8.10;;;;;;;21.38;32.68;95800.66;6205542;28;104259;-72
2022/12/27 05:58:03;;;;;;;9.57;8.07;;;;;;;21.39;32.33;95806.78;6209456;28;102827;-72
2022/12/27 06:01:10;;;;;;;9.00;8.30;;;;;;;21.33;32.36;95800.69;6199761;28;103701;-72
2022/12/27 06:04:13;;;;;;;8.73;7.83;;;;;;;21.38;32.67;95816.63;6202952;28;103052;-73
2022/12/27 06:07:16;;;;;;;9.70;8.87;;;;;;;21.37;32.48;95822.25;6209249;28;102718;-72
2022/12/27 06:10:20;;;;;;;9.57;8.77;;;;;;;21.37;32.24;95823.03;6205309;28;103122;-72
2022/12/27 06:13:23;;;;;;;9.93;9.13;;;;;;;21.37;32.23;95830.22;6196998;28;105526;-72
2022/12/27 06:16:27;;;;;;;8.77;8.07;;;;;;;21.36;32.22;95842.75;6208130;28;103283;-72
2022/12/27 06:19:30;;;;;;;9.87;9.07;;;;;;;21.36;32.62;95850.75;6207775;28;104055;-72
2022/12/27 06:22:33;;;;;;;10.23;9.33;;;;;;;21.32;32.31;95848.91;6207667;28;103046;-72
2022/12/27 06:25:37;;;;;;;10.03;9.20;;;;;;;21.31;32.38;95844.66;6194423;28;104727;-72
2022/12/27 06:28:41;;;;;;;10.00;9.20;;;;;;;21.33;32.20;95845.94;6206850;28;103115;-72
2022/12/27 06:31:45;;;;;;;10.00;9.20;;;;;;;21.34;32.52;95847.56;6204737;28;104139;-72
2022/12/27 06:34:48;;;;;;;9.70;8.80;;;;;;;21.26;32.39;95826.88;6203884;28;103743;-72
2022/12/27 06:37:51;;;;;;;9.87;9.07;;;;;;;21.33;32.16;95843.28;6202072;28;103840;-72
2022/12/27 06:41:00;;;;;;;9.73;8.93;;;;;;;21.34;32.21;95839.56;6207551;28;103064;-72
2022/12/27 06:44:04;;;;;;;10.20;9.30;;;;;;;21.34;32.37;95839.56;6210646;28;102963;-72
2022/12/27 06:47:08;;;;;;;11.37;10.33;;;;;;;21.35;32.05;95832.38;6202648;28;103067;-72
2022/12/27 06:50:11;;;;;;;10.73;9.73;;;;;;;21.32;32.30;95831.06;6212002;28;105457;-72
2022/12/27 06:53:14;;;;;;;10.30;9.30;;;;;;;21.36;32.48;95842.75;6211827;28;105844;-71
2022/12/27 06:56:20;;;;;;;10.87;9.97;;;;;;;21.38;32.22;95834.47;6211249;28;103147;-71
2022/12/27 06:59:23;;;;;;;10.07;9.20;;;;;;;21.37;32.09;95825.69;6201030;28;105412;-73
2022/12/27 07:02:28;;;;;;;11.13;10.00;;;;;;;21.45;32.28;95830.41;6211936;28;103350;-72
2022/12/27 07:05:31;;;;;;;10.97;10.07;;;;;;;21.78;31.28;95815.38;6211512;28;103038;-72
2022/12/27 07:08:35;;;;;;;10.40;9.50;;;;;;;22.07;31.11;95815.34;6212504;28;103109;-73
2022/12/27 07:11:39;;;;;;;10.83;9.83;;;;;;;22.30;30.76;95824.34;6201628;28;103882;-71
2022/12/27 07:14:42;;;;;;;10.00;9.20;;;;;;;22.41;30.61;95825.81;6210326;28;103123;-74
2022/12/27 07:17:47;;;;;;;10.50;9.70;;;;;;;22.12;31.07;95825.13;6212089;28;103183;-71
2022/12/27 07:20:50;;;;;;;10.97;10.07;;;;;;;21.97;31.58;95825.31;6207567;28;103373;-73
2022/12/27 07:23:53;;;;;;;12.17;11.03;;;;;;;21.83;31.90;95803.91;6205583;28;103072;-70
2022/12/27 07:26:57;;;;;;;12.53;11.53;;;;;;;21.79;32.11;95802.84;6211744;28;103200;-71
2022/12/27 07:30:00;;;;;;;14.97;13.67;;;;;;;21.74;32.48;95810.91;6210090;28;105633;-71
2022/12/27 07:33:04;;;;;;;15.00;13.60;;;;;;;21.69;32.22;95817.09;6202502;28;104567;-70
2022/12/27 07:36:11;;;;;;;15.77;14.37;;;;;;;21.66;32.16;95822.97;6211305;28;103174;-69
2022/12/27 07:39:14;;;;;;;16.10;14.60;;;;;;;21.65;32.37;95828.59;6209969;28;103025;-70
2022/12/27 07:42:17;;;;;;;15.63;14.10;;;;;;;21.65;32.35;95813.41;6212221;28;104286;-68
2022/12/27 07:45:20;;;;;;;17.27;15.87;;;;;;;21.57;32.69;95829.22;6201324;28;104302;-68
2022/12/27 07:48:25;;;;;;;18.10;16.43;;;;;;;21.59;32.27;95819.88;6212239;28;103276;-69
2022/12/27 07:51:28;;;;;;;17.10;15.60;;;;;;;21.56;31.77;95793.00;6210898;28;103275;-68
2022/12/27 07:54:31;;;;;;;17.63;16.00;;;;;;;21.74;31.58;95816.25;6207679;28;103170;-69
2022/12/27 07:57:35;;;;;;;16.70;15.07;;;;;;;21.87;31.47;95812.13;6200790;28;104828;-68
2022/12/27 08:00:38;;;;;;;15.97;14.57;;;;;;;21.95;31.40;95814.94;6211798;28;103235;-67
2022/12/27 08:03:43;;;;;;;15.10;13.70;;;;;;;22.03;31.22;95826.88;6196292;28;103004;-69
2022/12/27 08:06:46;;;;;;;16.40;14.80;;;;;;;22.02;31.69;95825.28;6205256;28;104157;-68
2022/12/27 08:09:50;;;;;;;17.40;15.87;;;;;;;22.03;31.38;95835.66;6205859;28;102849;-68
2022/12/27 08:12:53;;;;;;;16.50;15.00;;;;;;;22.03;31.43;95829.53;6209977;28;103139;-68
2022/12/27 08:15:57;;;;;;;16.23;14.57;;;;;;;22.06;31.86;95835.06;6209194;28;102841;-68
2022/12/27 08:19:01;;;;;;;16.63;15.00;;;;;;;22.08;31.31;95838.25;6199671;28;103908;-70
2022/12/27 08:22:10;;;;;;;16.30;14.80;;;;;;;22.18;31.88;95837.34;6206912;28;103391;-68
2022/12/27 08:25:13;;;;;;;16.50;14.90;;;;;;;22.11;31.60;95827.00;6210449;28;103171;-68
2022/12/27 08:28:18;;;;;;;16.60;15.10;;;;;;;22.13;32.10;95825.91;6210182;28;103200;-66
2022/12/27 08:31:21;;;;;;;16.53;15.03;;;;;;;22.20;32.08;95845.84;6199467;28;105448;-67
2022/12/27 08:34:27;;;;;;;15.90;14.40;;;;;;;22.23;32.38;95839.13;6208357;28;103032;-66
2022/12/27 08:37:31;;;;;;;15.23;13.73;;;;;;;22.15;32.14;95829.88;6204009;28;103218;-67
2022/12/27 08:40:34;;;;;;;16.93;15.33;;;;;;;22.06;32.21;95807.63;6211786;28;103159;-68
2022/12/27 08:43:37;;;;;;;17.53;15.93;;;;;;;22.18;32.94;95820.50;6201718;28;102942;-68
2022/12/27 08:46:40;;;;;;;16.63;15.03;;;;;;;22.15;32.58;95805.09;6210240;28;103301;-68
2022/12/27 08:49:45;;;;;;;18.10;16.27;;;;;;;22.20;32.53;95818.38;6209157;28;104026;-69
2022/12/27 08:52:48;;;;;;;18.47;16.87;;;;;;;22.21;33.20;95815.44;6205036;28;103020;-68
2022/12/27 08:55:51;;;;;;;18.20;16.60;;;;;;;22.16;33.21;95812.81;6204148;28;104641;-68
2022/12/27 08:58:54;;;;;;;19.30;17.70;;;;;;;22.11;32.99;95811.00;6209625;28;103197;-68
2022/12/27 09:01:57;;;;;;;20.77;19.00;;;;;;;22.08;33.59;95808.94;6204694;28;103437;-68
2022/12/27 09:05:02;;;;;;;21.67;19.70;;;;;;;22.05;33.40;95796.19;6198485;28;102875;-68
2022/12/27 09:08:05;;;;;;;22.83;20.93;;;;;;;22.01;33.64;95795.16;6210004;28;103065;-70
2022/12/27 09:11:11;;;;;;;21.80;19.90;;;;;;;22.01;33.64;95792.50;6209582;28;104118;-68
2022/12/27 09:14:14;;;;;;;19.77;17.93;;;;;;;22.00;33.90;95788.22;6209938;28;105530;-68
2022/12/27 09:17:17;;;;;;;21.13;19.33;;;;;;;22.02;34.00;95779.97;6197524;28;103195;-67
2022/12/27 09:20:22;;;;;;;21.40;19.30;;;;;;;22.03;34.11;95773.56;6209198;28;106070;-68
2022/12/27 09:23:25;;;;;;;29.13;26.53;;;;;;;22.02;33.91;95767.44;6209035;28;105469;-67
2022/12/27 09:26:30;;;;;;;37.43;34.23;;;;;;;21.96;33.52;95754.44;6204253;28;103315;-68
2022/12/27 09:29:34;;;;;;;51.40;46.67;;;;;;;22.05;32.80;95758.88;6203568;28;103052;-68
2022/12/27 09:32:37;;;;;;;55.57;50.37;;;;;;;22.05;32.91;95766.06;6209408;28;103258;-68
2022/12/27 09:35:41;;;;;;;51.50;46.50;;;;;;;21.99;32.93;95759.19;6208424;28;102866;-67
2022/12/27 09:38:45;;;;;;;40.27;36.40;;;;;;;21.97;33.14;95756.81;6198145;28;103415;-68
2022/12/27 09:41:58;;;;;;;37.00;33.73;;;;;;;21.84;33.03;95751.41;6208244;28;103150;-68
2022/12/27 09:45:28;;;;;;;31.43;28.73;;;;;;;21.86;33.06;95757.25;6202155;28;102825;-67
2022/12/27 09:48:34;;;;;;;29.70;27.00;;;;;;;21.87;32.65;95759.63;6205695;28;103000;-67
2022/12/27 09:51:46;;;;;;;26.60;24.10;;;;;;;21.90;32.42;95751.06;6199555;28;103668;-69
2022/12/27 09:54:58;;;;;;;25.70;23.37;;;;;;;21.93;32.19;95744.38;6206983;28;103400;-70
2022/12/27 09:58:19;;;;;;;25.40;23.10;;;;;;;21.93;31.86;95739.81;6188755;28;102971;-69
2022/12/27 10:01:27;;;;;;;24.10;21.70;;;;;;;21.85;32.25;95743.16;6199130;28;103414;-69
2022/12/27 10:04:36;;;;;;;22.07;20.10;;;;;;;21.95;32.24;95753.66;6195071;28;103318;-68
2022/12/27 10:08:18;;;;;;;21.83;19.83;;;;;;;22.02;31.99;95743.44;6198974;28;103559;-69
2022/12/27 10:11:36;;;;;;;20.23;18.43;;;;;;;21.99;31.37;95725.34;6210644;28;104030;-68
2022/12/27 10:15:00;;;;;;;18.20;16.57;;;;;;;22.07;31.67;95718.59;6199248;28;103055;-69
2022/12/27 10:18:14;;;;;;;19.83;18.07;;;;;;;22.17;31.14;95694.44;6212237;28;103640;-71
2022/12/27 10:21:21;;;;;;;18.70;17.00;;;;;;;22.25;31.79;95687.66;6209086;28;103466;-68
2022/12/27 10:24:35;;;;;;;17.70;15.90;;;;;;;22.29;31.82;95694.00;6202055;28;103021;-67
2022/12/27 10:27:40;;;;;;;17.27;15.57;;;;;;;22.30;31.70;95696.38;6204753;28;103216;-69
2022/12/27 10:30:43;;;;;;;15.80;14.30;;;;;;;22.29;32.11;95689.44;6202774;28;102946;-70
2022/12/27 10:33:48;;;;;;;15.23;13.93;;;;;;;22.32;32.05;95706.75;6198940;28;103270;-71
2022/12/27 10:36:53;;;;;;;15.47;14.07;;;;;;;22.35;31.97;95700.84;6202033;28;105392;-69
2022/12/27 10:40:04;;;;;;;15.60;14.17;;;;;;;22.39;32.02;95705.31;6207869;28;103522;-67
2022/12/27 10:43:16;;;;;;;15.63;14.23;;;;;;;22.42;32.30;95699.38;6201154;28;103028;-66
2022/12/27 10:46:23;;;;;;;14.67;13.37;;;;;;;22.45;32.24;95700.66;6208880;28;105942;-68
2022/12/27 10:49:35;;;;;;;16.10;14.57;;;;;;;22.40;33.13;95690.09;6202054;28;103222;-67
2022/12/27 10:52:38;;;;;;;14.90;13.67;;;;;;;22.47;33.12;95701.16;6207328;28;105102;-68
2022/12/27 10:55:42;;;;;;;15.87;14.23;;;;;;;22.46;32.79;95694.25;6210418;28;103577;-69
2022/12/27 10:58:47;;;;;;;14.47;13.27;;;;;;;22.44;33.44;95693.75;6207899;28;103908;-68
2022/12/27 11:02:17;;;;;;;14.80;13.40;;;;;;;22.36;33.15;95687.22;6198217;28;103105;-68
2022/12/27 11:05:23;;;;;;;15.77;14.37;;;;;;;22.34;33.35;95692.03;6212571;28;103006;-70
2022/12/27 11:08:26;;;;;;;15.00;13.70;;;;;;;22.32;33.40;95685.41;6212600;28;102918;-68
2022/12/27 11:11:31;;;;;;;14.53;13.13;;;;;;;22.29;33.83;95689.44;6191484;28;103206;-68
2022/12/27 11:14:36;;;;;;;14.63;13.23;;;;;;;22.18;33.55;95668.56;6211815;28;103218;-68
2022/12/27 11:17:42;;;;;;;15.17;13.80;;;;;;;22.24;33.58;95689.53;6212044;28;103061;-68
2022/12/27 11:20:49;;;;;;;14.93;13.60;;;;;;;22.05;33.06;95662.91;6213870;28;103107;-69
2022/12/27 11:23:58;;;;;;;16.37;14.87;;;;;;;22.19;33.20;95688.84;6203126;28;103950;-69
2022/12/27 11:27:03;;;;;;;16.83;15.30;;;;;;;22.18;33.34;95687.22;6212153;28;102702;-68
2022/12/27 11:30:20;;;;;;;15.70;14.30;;;;;;;22.11;32.70;95668.94;6208967;28;103374;-68
2022/12/27 11:33:30;;;;;;;16.23;14.70;;;;;;;22.15;33.21;95672.59;6193853;28;103670;-68
2022/12/27 11:36:36;;;;;;;16.70;15.10;;;;;;;22.15;33.09;95677.16;6211075;28;103289;-67
2022/12/27 11:39:42;;;;;;;16.57;15.07;;;;;;;21.99;33.36;95658.72;6211104;28;102927;-69
2022/12/27 11:42:52;;;;;;;16.53;15.03;;;;;;;22.10;33.42;95676.16;6212475;28;102759;-69
2022/12/27 11:45:57;;;;;;;15.40;14.10;;;;;;;22.08;33.29;95683.66;6201345;28;103174;-69
2022/12/27 11:49:04;;;;;;;16.13;14.63;;;;;;;22.11;33.36;95683.06;6207899;28;103391;-70
2022/12/27 11:52:35;;;;;;;15.83;14.23;;;;;;;22.17;32.96;95680.31;6197965;28;104152;-69
2022/12/27 11:55:52;;;;;;;15.10;13.77;;;;;;;22.17;33.08;95677.66;6204201;28;105571;-67
2022/12/27 11:59:43;;;;;;;15.77;14.37;;;;;;;22.18;33.53;95681.91;6205006;28;103126;-67
2022/12/27 12:03:25;;;;;;;16.10;14.50;;;;;;;22.23;33.62;95674.63;6105923;28;103004;-72
2022/12/27 12:06:44;;;;;;;16.27;14.80;;;;;;;22.22;33.78;95675.72;6167707;28;106055;-69
2022/12/27 12:10:10;;;;;;;19.67;17.77;;;;;;;22.27;33.96;95680.16;6193895;28;103152;-70
2022/12/27 12:13:48;;;;;;;19.30;17.23;;;;;;;22.38;33.94;95677.06;6208662;28;103323;-69
2022/12/27 12:17:04;;;;;;;19.37;17.47;;;;;;;22.44;34.50;95677.75;6200826;28;103174;-71
2022/12/27 12:20:22;;;;;;;17.50;15.73;;;;;;;22.46;34.64;95666.78;6200623;28;103787;-70
2022/12/27 12:23:49;;;;;;;16.30;14.60;;;;;;;22.46;34.51;95667.59;6196344;28;103324;-69
2022/12/27 12:27:18;;;;;;;18.10;16.40;;;;;;;22.46;34.92;95664.91;6196895;28;103739;-70
2022/12/27 12:30:38;;;;;;;17.90;16.30;;;;;;;22.46;35.20;95667.59;6203807;28;103617;-70
2022/12/27 12:33:58;;;;;;;16.60;14.90;;;;;;;22.44;34.98;95677.75;6204913;28;103567;-69
2022/12/27 12:37:19;;;;;;;21.00;16.20;;;;;;;22.37;35.38;95674.69;6195788;28;103166;-69
2022/12/27 12:40:41;;;;;;;16.70;15.00;;;;;;;22.39;35.38;95697.31;6210700;28;102832;-68
2022/12/27 12:44:10;;;;;;;17.17;15.57;;;;;;;22.37;35.84;95690.69;6202078;28;102866;-69
2022/12/27 12:47:29;;;;;;;17.07;15.47;;;;;;;22.34;35.41;95691.25;6195026;28;102995;-68
2022/12/27 12:50:51;;;;;;;16.07;14.37;;;;;;;22.33;36.04;95697.66;6212004;28;106034;-69
2022/12/27 12:54:08;;;;;;;16.03;14.53;;;;;;;22.31;35.58;95703.28;6200540;28;103110;-69
2022/12/27 12:57:26;;;;;;;19.60;14.53;;;;;;;22.30;35.84;95698.25;6211463;28;103049;-68
2022/12/27 13:00:47;;;;;;;16.33;14.73;;;;;;;22.24;36.00;95697.53;6211256;28;103204;-70
2022/12/27 13:04:01;;;;;;;17.30;15.50;;;;;;;21.89;36.38;95645.56;6210197;28;103020;-69
2022/12/27 13:07:39;;;;;;;17.00;15.33;;;;;;;22.24;36.58;95704.75;6199185;28;103137;-69
2022/12/27 13:11:04;;;;;;;17.10;15.60;;;;;;;22.21;36.14;95702.66;6211374;28;105957;-70
2022/12/27 13:14:24;;;;;;;16.10;14.70;;;;;;;22.21;36.81;95713.31;6211438;28;103815;-69
2022/12/27 13:17:36;;;;;;;17.80;15.67;;;;;;;22.26;36.54;95716.69;6189162;28;103186;-70
2022/12/27 13:21:00;;;;;;;16.67;15.07;;;;;;;22.20;36.71;95722.41;6210058;28;103101;-71
2022/12/27 13:24:19;;;;;;;18.43;16.67;;;;;;;22.18;36.40;95727.22;6210271;28;103856;-70
2022/12/27 13:27:39;;;;;;;17.10;15.60;;;;;;;22.16;36.79;95732.84;6204757;28;103109;-70
2022/12/27 13:30:56;;;;;;;18.50;16.80;;;;;;;22.17;36.25;95728.28;6205538;28;103258;-69
2022/12/27 13:34:11;;;;;;;24.47;22.20;;;;;;;22.15;36.45;95741.13;6201930;28;102977;-71
2022/12/27 13:37:25;;;;;;;25.23;22.90;;;;;;;22.14;36.47;95735.00;6206440;28;102891;-71
2022/12/27 13:40:43;;;;;;;24.50;22.27;;;;;;;22.16;36.53;95748.03;6194757;28;104638;-71
2022/12/27 13:43:56;;;;;;;24.37;22.20;;;;;;;22.13;36.36;95756.63;6208907;28;102809;-71
2022/12/27 13:47:40;;;;;;;25.40;22.70;;;;;;;22.11;36.26;95765.69;6210019;28;103397;-71
2022/12/27 13:51:04;;;;;;;23.90;21.73;;;;;;;22.13;36.53;95762.75;6103340;28;103426;-71
2022/12/27 13:54:51;;;;;;;24.30;21.80;;;;;;;22.17;36.72;95762.94;6208895;28;103194;-70
2022/12/27 13:58:34;;;;;;;24.63;22.33;;;;;;;22.19;36.96;95763.47;6200051;28;103204;-71
2022/12/27 14:02:07;;;;;;;23.47;21.17;;;;;;;22.10;36.83;95756.13;6106599;28;103307;-69
2022/12/27 14:05:52;;;;;;;23.40;21.30;;;;;;;22.21;36.96;95755.97;6210394;28;105855;-70
2022/12/27 14:09:35;;;;;;;22.97;20.77;;;;;;;22.22;37.27;95762.91;6202149;28;103533;-71
2022/12/27 14:12:56;;;;;;;22.63;20.63;;;;;;;22.23;37.19;95764.47;6204176;28;103039;-69
2022/12/27 14:16:30;;;;;;;22.97;20.90;;;;;;;22.24;37.15;95777.53;6206051;28;104816;-71
2022/12/27 14:19:52;;;;;;;23.03;21.03;;;;;;;22.24;37.35;95776.72;6212175;28;103190;-70
2022/12/27 14:23:32;;;;;;;22.23;20.10;;;;;;;22.24;37.21;95774.84;6212682;28;103132;-69
2022/12/27 14:27:03;;;;;;;22.80;20.70;;;;;;;22.26;37.34;95785.22;6199717;28;103111;-70
2022/12/27 14:30:31;;;;;;;20.90;19.00;;;;;;;22.24;37.41;95782.06;6203509;28;103012;-69
2022/12/27 14:34:09;;;;;;;21.00;19.00;;;;;;;22.21;37.56;95782.66;6210831;28;103033;-69
2022/12/27 14:37:44;;;;;;;20.83;18.97;;;;;;;22.24;37.55;95795.41;6201397;28;105240;-71
2022/12/27 14:41:12;;;;;;;22.23;20.13;;;;;;;22.18;37.81;95794.69;6178934;28;104515;-71
2022/12/27 14:44:52;;;;;;;20.57;18.77;;;;;;;22.14;37.69;95792.84;6203150;28;104245;-71
2022/12/27 14:48:29;;;;;;;20.43;18.60;;;;;;;22.15;37.67;95791.78;6148312;28;104525;-70
2022/12/27 14:52:06;;;;;;;20.23;18.33;;;;;;;22.19;37.40;95796.25;6182272;28;103075;-69
2022/12/27 14:55:39;;;;;;;19.70;17.90;;;;;;;22.19;37.99;95803.47;6210580;28;103150;-69
2022/12/27 14:58:55;;;;;;;20.10;18.20;;;;;;;22.14;37.78;95795.53;6208520;28;103120;-70
2022/12/27 15:02:12;;;;;;;19.60;17.80;;;;;;;22.06;37.97;95776.44;6185913;28;103340;-71
2022/12/27 15:05:34;;;;;;;19.43;17.63;;;;;;;22.11;38.31;95800.34;6211655;28;103080;-68
2022/12/27 15:08:57;;;;;;;18.87;17.03;;;;;;;22.05;37.87;95793.50;6207157;28;103030;-68
2022/12/27 15:12:22;;;;;;;18.47;16.77;;;;;;;22.01;37.46;95797.84;6184348;28;103353;-67
2022/12/27 15:15:40;;;;;;;17.90;16.30;;;;;;;21.99;37.20;95805.28;6210098;28;104210;-68
2022/12/27 15:19:01;;;;;;;17.33;15.83;;;;;;;21.97;36.92;95790.69;6210906;28;103794;-67
2022/12/27 15:22:15;;;;;;;17.83;16.33;;;;;;;21.99;37.35;95807.97;6207858;28;103024;-67
2022/12/27 15:25:29;;;;;;;16.93;15.23;;;;;;;22.00;37.39;95817.53;6192811;28;103024;-67
2022/12/27 15:28:55;;;;;;;16.73;15.20;;;;;;;21.74;36.90;95773.63;6212585;28;103198;-68
2022/12/27 15:32:10;;;;;;;16.97;15.57;;;;;;;21.97;37.36;95812.00;6192634;28;107110;-68
2022/12/27 15:35:34;;;;;;;17.13;15.63;;;;;;;21.94;37.51;95812.56;6200935;28;103786;-67
2022/12/27 15:38:44;;;;;;;15.60;14.30;;;;;;;21.95;37.09;95809.63;6211268;28;103663;-67
2022/12/27 15:42:01;;;;;;;16.03;14.73;;;;;;;21.84;37.03;95802.81;6209947;28;103054;-67
2022/12/27 15:45:16;;;;;;;17.00;15.50;;;;;;;21.93;37.02;95817.09;6210624;28;103489;-67
2022/12/27 15:48:44;;;;;;;16.70;15.17;;;;;;;21.93;37.27;95819.78;6204605;28;105653;-67
2022/12/27 15:52:04;;;;;;;16.30;14.90;;;;;;;21.92;36.93;95822.72;6205123;28;103041;-68
2022/12/27 15:55:22;;;;;;;18.20;16.70;;;;;;;21.85;37.08;95823.09;6207675;28;103093;-67
2022/12/27 15:58:26;;;;;;;17.37;15.87;;;;;;;21.94;37.77;95834.69;6200525;28;103147;-67
2022/12/27 16:01:30;;;;;;;18.80;17.20;;;;;;;21.94;38.38;95832.03;6204283;28;102832;-67
2022/12/27 16:04:49;;;;;;;20.80;18.90;;;;;;;21.81;39.37;95817.47;6195990;28;103339;-69
2022/12/27 16:08:13;;;;;;;18.40;16.67;;;;;;;21.94;38.96;95829.34;6210048;28;103970;-67
2022/12/27 16:11:17;;;;;;;19.33;17.63;;;;;;;21.99;38.99;95836.47;6177960;28;104468;-69